sensor_id;sensor_type;location;lat;lon;timestamp;P1;durP1;ratioP1;P2;durP2;ratioP2
60975;SDS011;46849;48.154;17.042;2022-09-30T00:01:14;7.22;;;3.72;;
60975;SDS011;46849;48.154;17.042;2022-09-30T00:03:59;8.23;;;3.78;;
60975;SDS011;46849;48.154;17.042;2022-09-30T00:06:44;6.38;;;3.50;;
60975;SDS011;46849;48.154;17.042;2022-09-30T00:09:29;5.50;;;3.72;;
60975;SDS011;46849;48.154;17.042;2022-09-30T00:12:14;6.53;;;3.40;;
60975;SDS011;46849;48.154;17.042;2022-09-30T00:14:59;5.80;;;3.88;;
60975;SDS011;46849;48.154;17.042;2022-09-30T00:17:44;5.57;;;3.83;;
60975;SDS011;46849;48.154;17.042;2022-09-30T00:20:28;6.65;;;4.22;;
60975;SDS011;46849;48.154;17.042;2022-09-30T00:23:13;5.30;;;4.07;;
60975;SDS011;46849;48.154;17.042;2022-09-30T00:25:58;11.38;;;4.32;;
60975;SDS011;46849;48.154;17.042;2022-09-30T00:28:47;6.25;;;4.70;;
60975;SDS011;46849;48.154;17.042;2022-09-30T00:31:34;6.82;;;4.60;;
60975;SDS011;46849;48.154;17.042;2022-09-30T00:34:19;7.22;;;4.75;;
60975;SDS011;46849;48.154;17.042;2022-09-30T00:37:03;5.97;;;4.25;;
60975;SDS011;46849;48.154;17.042;2022-09-30T00:39:49;6.78;;;4.60;;
60975;SDS011;46849;48.154;17.042;2022-09-30T00:42:33;6.28;;;4.22;;
60975;SDS011;46849;48.154;17.042;2022-09-30T00:45:18;5.40;;;3.70;;
60975;SDS011;46849;48.154;17.042;2022-09-30T00:48:07;5.80;;;3.83;;
60975;SDS011;46849;48.154;17.042;2022-09-30T00:50:56;7.57;;;3.90;;
60975;SDS011;46849;48.154;17.042;2022-09-30T00:53:50;5.28;;;3.83;;
60975;SDS011;46849;48.154;17.042;2022-09-30T00:56:43;5.88;;;3.65;;
60975;SDS011;46849;48.154;17.042;2022-09-30T00:59:36;5.15;;;3.90;;
60975;SDS011;46849;48.154;17.042;2022-09-30T01:02:26;6.60;;;4.05;;
60975;SDS011;46849;48.154;17.042;2022-09-30T01:05:11;4.72;;;3.50;;
60975;SDS011;46849;48.154;17.042;2022-09-30T01:07:56;5.90;;;3.72;;
60975;SDS011;46849;48.154;17.042;2022-09-30T01:10:44;6.90;;;3.70;;
60975;SDS011;46849;48.154;17.042;2022-09-30T01:13:29;5.72;;;3.78;;
60975;SDS011;46849;48.154;17.042;2022-09-30T01:31:55;7.72;;;4.60;;
60975;SDS011;46849;48.154;17.042;2022-09-30T01:35:08;6.82;;;4.80;;
60975;SDS011;46849;48.154;17.042;2022-09-30T01:38:04;6.85;;;3.92;;
60975;SDS011;46849;48.154;17.042;2022-09-30T01:41:02;6.15;;;3.83;;
60975;SDS011;46849;48.154;17.042;2022-09-30T01:43:55;5.75;;;4.20;;
60975;SDS011;46849;48.154;17.042;2022-09-30T01:46:52;6.47;;;4.75;;
60975;SDS011;46849;48.154;17.042;2022-09-30T01:49:49;6.03;;;4.20;;
60975;SDS011;46849;48.154;17.042;2022-09-30T01:52:57;8.43;;;4.53;;
60975;SDS011;46849;48.154;17.042;2022-09-30T01:56:17;6.70;;;4.43;;
60975;SDS011;46849;48.154;17.042;2022-09-30T01:59:08;6.47;;;4.57;;
60975;SDS011;46849;48.154;17.042;2022-09-30T02:01:57;5.55;;;4.32;;
60975;SDS011;46849;48.154;17.042;2022-09-30T02:04:51;7.25;;;4.57;;
60975;SDS011;46849;48.154;17.042;2022-09-30T02:07:43;7.20;;;4.47;;
60975;SDS011;46849;48.154;17.042;2022-09-30T02:10:32;5.82;;;4.18;;
60975;SDS011;46849;48.154;17.042;2022-09-30T02:16:16;6.47;;;4.10;;
60975;SDS011;46849;48.154;17.042;2022-09-30T02:19:19;6.57;;;4.80;;
60975;SDS011;46849;48.154;17.042;2022-09-30T02:25:05;5.78;;;4.25;;
60975;SDS011;46849;48.154;17.042;2022-09-30T02:27:56;7.00;;;3.83;;
60975;SDS011;46849;48.154;17.042;2022-09-30T02:30:46;6.13;;;3.75;;
60975;SDS011;46849;48.154;17.042;2022-09-30T02:33:34;5.53;;;3.83;;
60975;SDS011;46849;48.154;17.042;2022-09-30T02:36:26;6.93;;;4.35;;
60975;SDS011;46849;48.154;17.042;2022-09-30T02:39:40;5.38;;;4.13;;
60975;SDS011;46849;48.154;17.042;2022-09-30T02:42:32;5.75;;;4.07;;
60975;SDS011;46849;48.154;17.042;2022-09-30T02:45:21;7.03;;;4.75;;
60975;SDS011;46849;48.154;17.042;2022-09-30T02:51:10;7.72;;;4.65;;
60975;SDS011;46849;48.154;17.042;2022-09-30T02:57:23;6.90;;;4.38;;
60975;SDS011;46849;48.154;17.042;2022-09-30T03:00:18;6.57;;;4.30;;
60975;SDS011;46849;48.154;17.042;2022-09-30T03:03:08;6.80;;;4.82;;
60975;SDS011;46849;48.154;17.042;2022-09-30T03:06:06;5.45;;;3.80;;
60975;SDS011;46849;48.154;17.042;2022-09-30T03:08:51;6.53;;;4.22;;
60975;SDS011;46849;48.154;17.042;2022-09-30T03:11:36;6.85;;;4.53;;
60975;SDS011;46849;48.154;17.042;2022-09-30T03:14:25;8.73;;;4.32;;
60975;SDS011;46849;48.154;17.042;2022-09-30T03:17:36;6.07;;;4.07;;
60975;SDS011;46849;48.154;17.042;2022-09-30T03:26:29;6.95;;;4.47;;
60975;SDS011;46849;48.154;17.042;2022-09-30T03:32:05;6.10;;;4.13;;
60975;SDS011;46849;48.154;17.042;2022-09-30T03:38:19;5.85;;;3.53;;
60975;SDS011;46849;48.154;17.042;2022-09-30T03:44:15;5.03;;;3.40;;
60975;SDS011;46849;48.154;17.042;2022-09-30T03:47:07;6.05;;;3.83;;
60975;SDS011;46849;48.154;17.042;2022-09-30T03:49:55;8.68;;;3.60;;
60975;SDS011;46849;48.154;17.042;2022-09-30T03:52:44;5.70;;;3.47;;
60975;SDS011;46849;48.154;17.042;2022-09-30T03:55:29;6.45;;;3.65;;
60975;SDS011;46849;48.154;17.042;2022-09-30T03:58:17;6.07;;;3.83;;
60975;SDS011;46849;48.154;17.042;2022-09-30T04:01:03;6.07;;;3.50;;
60975;SDS011;46849;48.154;17.042;2022-09-30T04:03:51;5.60;;;3.25;;
60975;SDS011;46849;48.154;17.042;2022-09-30T04:06:37;5.82;;;3.42;;
60975;SDS011;46849;48.154;17.042;2022-09-30T04:09:21;5.40;;;3.30;;
60975;SDS011;46849;48.154;17.042;2022-09-30T04:12:08;4.25;;;3.08;;
60975;SDS011;46849;48.154;17.042;2022-09-30T04:14:52;4.57;;;2.83;;
60975;SDS011;46849;48.154;17.042;2022-09-30T04:17:37;5.80;;;2.80;;
60975;SDS011;46849;48.154;17.042;2022-09-30T04:20:22;5.22;;;3.15;;
60975;SDS011;46849;48.154;17.042;2022-09-30T04:23:06;4.05;;;2.97;;
60975;SDS011;46849;48.154;17.042;2022-09-30T04:25:58;6.20;;;3.00;;
60975;SDS011;46849;48.154;17.042;2022-09-30T04:28:42;6.10;;;3.50;;
60975;SDS011;46849;48.154;17.042;2022-09-30T04:31:27;4.88;;;2.70;;
60975;SDS011;46849;48.154;17.042;2022-09-30T04:34:12;4.40;;;2.95;;
60975;SDS011;46849;48.154;17.042;2022-09-30T04:36:58;4.03;;;2.83;;
60975;SDS011;46849;48.154;17.042;2022-09-30T04:39:42;4.43;;;3.20;;
60975;SDS011;46849;48.154;17.042;2022-09-30T04:42:27;4.32;;;3.10;;
60975;SDS011;46849;48.154;17.042;2022-09-30T04:45:13;5.38;;;3.40;;
60975;SDS011;46849;48.154;17.042;2022-09-30T04:47:59;4.63;;;3.42;;
60975;SDS011;46849;48.154;17.042;2022-09-30T04:50:44;6.45;;;4.40;;
60975;SDS011;46849;48.154;17.042;2022-09-30T04:53:29;6.07;;;3.83;;
60975;SDS011;46849;48.154;17.042;2022-09-30T04:56:16;5.60;;;4.10;;
60975;SDS011;46849;48.154;17.042;2022-09-30T04:59:17;6.00;;;4.22;;
60975;SDS011;46849;48.154;17.042;2022-09-30T05:02:02;5.90;;;3.58;;
60975;SDS011;46849;48.154;17.042;2022-09-30T05:07:38;5.80;;;3.70;;
60975;SDS011;46849;48.154;17.042;2022-09-30T05:10:24;5.82;;;3.60;;
60975;SDS011;46849;48.154;17.042;2022-09-30T05:13:15;4.35;;;3.55;;
60975;SDS011;46849;48.154;17.042;2022-09-30T05:16:00;4.00;;;3.10;;
60975;SDS011;46849;48.154;17.042;2022-09-30T05:18:45;5.25;;;2.95;;
60975;SDS011;46849;48.154;17.042;2022-09-30T05:21:30;4.47;;;3.55;;
60975;SDS011;46849;48.154;17.042;2022-09-30T05:24:18;4.32;;;3.63;;
60975;SDS011;46849;48.154;17.042;2022-09-30T05:27:03;5.22;;;4.18;;
60975;SDS011;46849;48.154;17.042;2022-09-30T05:29:47;4.18;;;3.20;;
60975;SDS011;46849;48.154;17.042;2022-09-30T05:32:32;4.82;;;3.13;;
60975;SDS011;46849;48.154;17.042;2022-09-30T05:35:17;5.32;;;3.55;;
60975;SDS011;46849;48.154;17.042;2022-09-30T05:38:02;4.60;;;3.80;;
60975;SDS011;46849;48.154;17.042;2022-09-30T05:40:47;4.15;;;3.00;;
60975;SDS011;46849;48.154;17.042;2022-09-30T05:43:32;4.18;;;3.08;;
60975;SDS011;46849;48.154;17.042;2022-09-30T05:46:17;5.32;;;2.80;;
60975;SDS011;46849;48.154;17.042;2022-09-30T05:49:03;3.17;;;2.20;;
60975;SDS011;46849;48.154;17.042;2022-09-30T05:51:49;5.18;;;3.28;;
60975;SDS011;46849;48.154;17.042;2022-09-30T05:54:34;2.88;;;1.52;;
60975;SDS011;46849;48.154;17.042;2022-09-30T05:57:19;3.58;;;1.70;;
60975;SDS011;46849;48.154;17.042;2022-09-30T06:00:04;2.97;;;2.35;;
60975;SDS011;46849;48.154;17.042;2022-09-30T06:02:56;5.05;;;2.45;;
60975;SDS011;46849;48.154;17.042;2022-09-30T06:06:42;3.45;;;1.95;;
60975;SDS011;46849;48.154;17.042;2022-09-30T06:09:09;3.25;;;2.30;;
60975;SDS011;46849;48.154;17.042;2022-09-30T06:11:53;2.53;;;1.83;;
60975;SDS011;46849;48.154;17.042;2022-09-30T06:14:41;3.42;;;1.75;;
60975;SDS011;46849;48.154;17.042;2022-09-30T06:17:25;2.15;;;1.80;;
60975;SDS011;46849;48.154;17.042;2022-09-30T06:20:10;4.28;;;1.60;;
60975;SDS011;46849;48.154;17.042;2022-09-30T06:22:57;2.10;;;1.42;;
60975;SDS011;46849;48.154;17.042;2022-09-30T06:25:43;2.28;;;1.25;;
60975;SDS011;46849;48.154;17.042;2022-09-30T06:28:28;1.50;;;1.13;;
60975;SDS011;46849;48.154;17.042;2022-09-30T06:31:13;3.10;;;1.45;;
60975;SDS011;46849;48.154;17.042;2022-09-30T06:33:58;1.60;;;1.40;;
60975;SDS011;46849;48.154;17.042;2022-09-30T06:36:44;2.22;;;1.08;;
60975;SDS011;46849;48.154;17.042;2022-09-30T06:39:29;2.30;;;1.25;;
60975;SDS011;46849;48.154;17.042;2022-09-30T06:42:14;2.45;;;1.02;;
60975;SDS011;46849;48.154;17.042;2022-09-30T06:44:59;1.48;;;1.00;;
60975;SDS011;46849;48.154;17.042;2022-09-30T06:47:44;1.02;;;0.93;;
60975;SDS011;46849;48.154;17.042;2022-09-30T06:50:30;1.42;;;0.90;;
60975;SDS011;46849;48.154;17.042;2022-09-30T06:53:16;1.33;;;1.02;;
60975;SDS011;46849;48.154;17.042;2022-09-30T06:56:00;1.85;;;0.90;;
60975;SDS011;46849;48.154;17.042;2022-09-30T06:58:45;1.48;;;0.90;;
60975;SDS011;46849;48.154;17.042;2022-09-30T07:01:30;2.67;;;1.20;;
60975;SDS011;46849;48.154;17.042;2022-09-30T07:04:14;1.65;;;1.40;;
60975;SDS011;46849;48.154;17.042;2022-09-30T07:06:59;2.03;;;1.40;;
60975;SDS011;46849;48.154;17.042;2022-09-30T07:09:43;2.55;;;1.13;;
60975;SDS011;46849;48.154;17.042;2022-09-30T07:12:27;1.85;;;1.10;;
60975;SDS011;46849;48.154;17.042;2022-09-30T07:15:12;1.85;;;0.98;;
60975;SDS011;46849;48.154;17.042;2022-09-30T07:17:57;2.97;;;1.50;;
60975;SDS011;46849;48.154;17.042;2022-09-30T07:20:46;2.30;;;1.83;;
60975;SDS011;46849;48.154;17.042;2022-09-30T07:23:31;2.03;;;1.63;;
60975;SDS011;46849;48.154;17.042;2022-09-30T07:26:18;2.72;;;2.00;;
60975;SDS011;46849;48.154;17.042;2022-09-30T07:29:05;3.13;;;1.45;;
60975;SDS011;46849;48.154;17.042;2022-09-30T07:31:50;2.13;;;1.52;;
60975;SDS011;46849;48.154;17.042;2022-09-30T07:34:35;2.95;;;1.42;;
60975;SDS011;46849;48.154;17.042;2022-09-30T07:37:20;1.73;;;1.20;;
60975;SDS011;46849;48.154;17.042;2022-09-30T07:40:06;1.88;;;1.30;;
60975;SDS011;46849;48.154;17.042;2022-09-30T07:42:51;2.97;;;1.60;;
60975;SDS011;46849;48.154;17.042;2022-09-30T07:45:37;2.58;;;1.48;;
60975;SDS011;46849;48.154;17.042;2022-09-30T07:48:22;2.28;;;1.20;;
60975;SDS011;46849;48.154;17.042;2022-09-30T07:51:27;2.50;;;1.40;;
60975;SDS011;46849;48.154;17.042;2022-09-30T07:54:20;2.67;;;1.70;;
60975;SDS011;46849;48.154;17.042;2022-09-30T07:57:06;2.97;;;1.70;;
60975;SDS011;46849;48.154;17.042;2022-09-30T07:59:52;2.70;;;1.58;;
60975;SDS011;46849;48.154;17.042;2022-09-30T08:02:37;2.30;;;1.58;;
60975;SDS011;46849;48.154;17.042;2022-09-30T08:05:23;2.40;;;1.75;;
60975;SDS011;46849;48.154;17.042;2022-09-30T08:08:08;3.42;;;2.53;;
60975;SDS011;46849;48.154;17.042;2022-09-30T08:10:52;3.17;;;2.20;;
60975;SDS011;46849;48.154;17.042;2022-09-30T08:13:42;2.85;;;2.05;;
60975;SDS011;46849;48.154;17.042;2022-09-30T08:16:27;2.83;;;1.95;;
60975;SDS011;46849;48.154;17.042;2022-09-30T08:19:14;2.72;;;2.00;;
60975;SDS011;46849;48.154;17.042;2022-09-30T08:22:05;4.60;;;2.53;;
60975;SDS011;46849;48.154;17.042;2022-09-30T08:24:53;3.67;;;2.33;;
60975;SDS011;46849;48.154;17.042;2022-09-30T08:30:44;2.90;;;2.40;;
60975;SDS011;46849;48.154;17.042;2022-09-30T08:33:28;4.78;;;2.28;;
60975;SDS011;46849;48.154;17.042;2022-09-30T08:36:16;3.40;;;2.15;;
60975;SDS011;46849;48.154;17.042;2022-09-30T08:39:02;2.78;;;1.77;;
60975;SDS011;46849;48.154;17.042;2022-09-30T08:51:41;5.53;;;3.38;;
60975;SDS011;46849;48.154;17.042;2022-09-30T08:54:29;4.10;;;2.50;;
60975;SDS011;46849;48.154;17.042;2022-09-30T08:57:18;3.28;;;2.55;;
60975;SDS011;46849;48.154;17.042;2022-09-30T09:00:05;5.35;;;2.67;;
60975;SDS011;46849;48.154;17.042;2022-09-30T09:02:53;5.05;;;2.90;;
60975;SDS011;46849;48.154;17.042;2022-09-30T09:05:45;3.20;;;2.65;;
60975;SDS011;46849;48.154;17.042;2022-09-30T09:20:45;4.50;;;3.00;;
60975;SDS011;46849;48.154;17.042;2022-09-30T09:23:36;3.60;;;2.17;;
60975;SDS011;46849;48.154;17.042;2022-09-30T09:26:21;2.58;;;1.67;;
60975;SDS011;46849;48.154;17.042;2022-09-30T09:32:29;4.68;;;3.22;;
60975;SDS011;46849;48.154;17.042;2022-09-30T09:35:15;2.75;;;1.63;;
60975;SDS011;46849;48.154;17.042;2022-09-30T09:38:27;3.30;;;1.70;;
60975;SDS011;46849;48.154;17.042;2022-09-30T09:47:02;4.45;;;3.42;;
60975;SDS011;46849;48.154;17.042;2022-09-30T09:49:58;3.75;;;2.70;;
60975;SDS011;46849;48.154;17.042;2022-09-30T09:55:48;4.82;;;2.40;;
60975;SDS011;46849;48.154;17.042;2022-09-30T09:58:38;4.10;;;3.20;;
60975;SDS011;46849;48.154;17.042;2022-09-30T10:01:50;4.60;;;2.97;;
60975;SDS011;46849;48.154;17.042;2022-09-30T10:04:38;4.50;;;2.70;;
60975;SDS011;46849;48.154;17.042;2022-09-30T10:07:34;5.22;;;3.03;;
60975;SDS011;46849;48.154;17.042;2022-09-30T10:10:19;7.53;;;3.47;;
60975;SDS011;46849;48.154;17.042;2022-09-30T10:13:04;6.20;;;3.42;;
60975;SDS011;46849;48.154;17.042;2022-09-30T10:15:51;7.55;;;3.83;;
60975;SDS011;46849;48.154;17.042;2022-09-30T10:18:39;14.90;;;5.17;;
60975;SDS011;46849;48.154;17.042;2022-09-30T10:21:25;8.00;;;3.67;;
60975;SDS011;46849;48.154;17.042;2022-09-30T10:24:18;3.72;;;2.80;;
60975;SDS011;46849;48.154;17.042;2022-09-30T10:27:30;4.85;;;3.47;;
60975;SDS011;46849;48.154;17.042;2022-09-30T10:36:18;4.25;;;3.28;;
60975;SDS011;46849;48.154;17.042;2022-09-30T10:42:15;5.10;;;3.38;;
60975;SDS011;46849;48.154;17.042;2022-09-30T10:45:47;5.25;;;3.00;;
60975;SDS011;46849;48.154;17.042;2022-09-30T10:48:21;5.43;;;4.30;;
60975;SDS011;46849;48.154;17.042;2022-09-30T10:51:17;5.03;;;3.70;;
60975;SDS011;46849;48.154;17.042;2022-09-30T10:54:09;6.65;;;4.43;;
60975;SDS011;46849;48.154;17.042;2022-09-30T11:00:13;6.13;;;3.67;;
60975;SDS011;46849;48.154;17.042;2022-09-30T11:03:04;5.50;;;4.20;;
60975;SDS011;46849;48.154;17.042;2022-09-30T11:05:55;5.75;;;4.05;;
60975;SDS011;46849;48.154;17.042;2022-09-30T11:14:59;7.13;;;4.22;;
60975;SDS011;46849;48.154;17.042;2022-09-30T11:20:59;6.40;;;4.97;;
60975;SDS011;46849;48.154;17.042;2022-09-30T11:23:53;7.40;;;5.28;;
60975;SDS011;46849;48.154;17.042;2022-09-30T11:38:32;9.43;;;5.80;;
60975;SDS011;46849;48.154;17.042;2022-09-30T11:44:31;8.93;;;6.53;;
60975;SDS011;46849;48.154;17.042;2022-09-30T11:47:25;9.07;;;6.70;;
60975;SDS011;46849;48.154;17.042;2022-09-30T11:50:23;12.13;;;7.05;;
60975;SDS011;46849;48.154;17.042;2022-09-30T11:59:20;10.32;;;6.88;;
60975;SDS011;46849;48.154;17.042;2022-09-30T12:02:27;8.50;;;6.72;;
60975;SDS011;46849;48.154;17.042;2022-09-30T12:05:23;8.55;;;6.80;;
60975;SDS011;46849;48.154;17.042;2022-09-30T12:11:48;9.55;;;6.38;;
60975;SDS011;46849;48.154;17.042;2022-09-30T12:17:27;7.43;;;5.18;;
60975;SDS011;46849;48.154;17.042;2022-09-30T12:20:24;8.35;;;5.28;;
60975;SDS011;46849;48.154;17.042;2022-09-30T12:26:13;7.83;;;4.77;;
60975;SDS011;46849;48.154;17.042;2022-09-30T12:29:02;7.93;;;4.43;;
60975;SDS011;46849;48.154;17.042;2022-09-30T12:38:57;5.10;;;4.05;;
60975;SDS011;46849;48.154;17.042;2022-09-30T12:44:58;5.90;;;4.55;;
60975;SDS011;46849;48.154;17.042;2022-09-30T12:47:57;6.75;;;4.82;;
60975;SDS011;46849;48.154;17.042;2022-09-30T12:50:47;6.68;;;4.65;;
60975;SDS011;46849;48.154;17.042;2022-09-30T12:53:36;6.55;;;4.78;;
60975;SDS011;46849;48.154;17.042;2022-09-30T12:56:24;6.75;;;4.40;;
60975;SDS011;46849;48.154;17.042;2022-09-30T12:59:12;7.68;;;5.15;;
60975;SDS011;46849;48.154;17.042;2022-09-30T13:01:57;7.05;;;4.70;;
60975;SDS011;46849;48.154;17.042;2022-09-30T13:04:46;6.43;;;4.35;;
60975;SDS011;46849;48.154;17.042;2022-09-30T13:07:33;7.50;;;4.53;;
60975;SDS011;46849;48.154;17.042;2022-09-30T13:15:55;6.53;;;4.90;;
60975;SDS011;46849;48.154;17.042;2022-09-30T13:21:31;5.95;;;4.25;;
60975;SDS011;46849;48.154;17.042;2022-09-30T13:24:15;6.68;;;4.70;;
60975;SDS011;46849;48.154;17.042;2022-09-30T13:27:06;6.88;;;4.80;;
60975;SDS011;46849;48.154;17.042;2022-09-30T13:38:33;5.50;;;3.75;;
60975;SDS011;46849;48.154;17.042;2022-09-30T13:41:23;4.22;;;3.28;;
60975;SDS011;46849;48.154;17.042;2022-09-30T13:44:58;4.35;;;3.20;;
60975;SDS011;46849;48.154;17.042;2022-09-30T13:47:39;4.95;;;3.08;;
60975;SDS011;46849;48.154;17.042;2022-09-30T13:50:35;5.45;;;3.17;;
60975;SDS011;46849;48.154;17.042;2022-09-30T13:53:40;4.47;;;3.25;;
60975;SDS011;46849;48.154;17.042;2022-09-30T13:56:35;6.05;;;3.60;;
60975;SDS011;46849;48.154;17.042;2022-09-30T13:59:42;6.55;;;2.83;;
60975;SDS011;46849;48.154;17.042;2022-09-30T14:06:00;7.80;;;3.10;;
60975;SDS011;46849;48.154;17.042;2022-09-30T14:24:15;3.70;;;2.55;;
60975;SDS011;46849;48.154;17.042;2022-09-30T14:30:21;2.55;;;2.00;;
60975;SDS011;46849;48.154;17.042;2022-09-30T14:33:08;2.67;;;2.28;;
60975;SDS011;46849;48.154;17.042;2022-09-30T14:35:55;2.83;;;2.15;;
60975;SDS011;46849;48.154;17.042;2022-09-30T14:39:16;3.90;;;2.85;;
60975;SDS011;46849;48.154;17.042;2022-09-30T14:42:09;4.03;;;2.40;;
60975;SDS011;46849;48.154;17.042;2022-09-30T14:45:01;3.97;;;2.60;;
60975;SDS011;46849;48.154;17.042;2022-09-30T14:47:49;3.53;;;2.58;;
60975;SDS011;46849;48.154;17.042;2022-09-30T14:50:41;4.82;;;2.47;;
60975;SDS011;46849;48.154;17.042;2022-09-30T14:53:41;2.92;;;2.05;;
60975;SDS011;46849;48.154;17.042;2022-09-30T14:56:36;3.63;;;2.35;;
60975;SDS011;46849;48.154;17.042;2022-09-30T14:59:26;4.50;;;3.13;;
60975;SDS011;46849;48.154;17.042;2022-09-30T15:02:16;3.15;;;2.40;;
60975;SDS011;46849;48.154;17.042;2022-09-30T15:05:05;4.07;;;2.45;;
60975;SDS011;46849;48.154;17.042;2022-09-30T15:07:50;4.30;;;2.65;;
60975;SDS011;46849;48.154;17.042;2022-09-30T15:10:36;2.88;;;2.38;;
60975;SDS011;46849;48.154;17.042;2022-09-30T15:13:25;5.00;;;2.70;;
60975;SDS011;46849;48.154;17.042;2022-09-30T15:16:22;3.47;;;2.90;;
60975;SDS011;46849;48.154;17.042;2022-09-30T15:19:13;3.00;;;2.70;;
60975;SDS011;46849;48.154;17.042;2022-09-30T15:22:04;4.07;;;2.92;;
60975;SDS011;46849;48.154;17.042;2022-09-30T15:24:49;5.30;;;3.13;;
60975;SDS011;46849;48.154;17.042;2022-09-30T15:27:36;2.35;;;1.73;;
60975;SDS011;46849;48.154;17.042;2022-09-30T15:30:22;5.38;;;2.80;;
60975;SDS011;46849;48.154;17.042;2022-09-30T15:33:14;4.70;;;1.90;;
60975;SDS011;46849;48.154;17.042;2022-09-30T15:36:02;2.88;;;1.90;;
60975;SDS011;46849;48.154;17.042;2022-09-30T15:38:49;5.13;;;2.63;;
60975;SDS011;46849;48.154;17.042;2022-09-30T15:41:38;2.88;;;2.13;;
60975;SDS011;46849;48.154;17.042;2022-09-30T15:44:35;4.00;;;2.90;;
60975;SDS011;46849;48.154;17.042;2022-09-30T15:47:21;2.88;;;2.38;;
60975;SDS011;46849;48.154;17.042;2022-09-30T15:50:27;3.33;;;2.35;;
60975;SDS011;46849;48.154;17.042;2022-09-30T15:53:24;3.25;;;2.20;;
60975;SDS011;46849;48.154;17.042;2022-09-30T15:56:21;3.25;;;2.58;;
60975;SDS011;46849;48.154;17.042;2022-09-30T15:59:10;3.30;;;1.88;;
60975;SDS011;46849;48.154;17.042;2022-09-30T16:01:56;4.72;;;2.22;;
60975;SDS011;46849;48.154;17.042;2022-09-30T16:04:41;3.35;;;1.65;;
60975;SDS011;46849;48.154;17.042;2022-09-30T16:07:28;2.42;;;1.38;;
60975;SDS011;46849;48.154;17.042;2022-09-30T16:10:18;4.47;;;2.80;;
60975;SDS011;46849;48.154;17.042;2022-09-30T16:13:13;2.90;;;1.60;;
60975;SDS011;46849;48.154;17.042;2022-09-30T16:16:01;5.97;;;2.90;;
60975;SDS011;46849;48.154;17.042;2022-09-30T16:18:46;3.58;;;2.40;;
60975;SDS011;46849;48.154;17.042;2022-09-30T16:27:23;3.45;;;2.10;;
60975;SDS011;46849;48.154;17.042;2022-09-30T16:30:13;4.65;;;2.17;;
60975;SDS011;46849;48.154;17.042;2022-09-30T16:33:02;6.35;;;2.10;;
60975;SDS011;46849;48.154;17.042;2022-09-30T16:35:49;2.85;;;2.08;;
60975;SDS011;46849;48.154;17.042;2022-09-30T16:38:34;12.23;;;8.18;;
60975;SDS011;46849;48.154;17.042;2022-09-30T16:41:19;6.88;;;3.92;;
60975;SDS011;46849;48.154;17.042;2022-09-30T16:44:04;4.28;;;3.38;;
60975;SDS011;46849;48.154;17.042;2022-09-30T16:46:49;6.47;;;4.63;;
60975;SDS011;46849;48.154;17.042;2022-09-30T16:49:34;9.68;;;6.10;;
60975;SDS011;46849;48.154;17.042;2022-09-30T16:52:19;6.45;;;3.85;;
60975;SDS011;46849;48.154;17.042;2022-09-30T16:55:04;3.38;;;2.40;;
60975;SDS011;46849;48.154;17.042;2022-09-30T16:57:49;4.03;;;2.63;;
60975;SDS011;46849;48.154;17.042;2022-09-30T17:00:36;11.52;;;5.78;;
60975;SDS011;46849;48.154;17.042;2022-09-30T17:03:26;4.43;;;2.78;;
60975;SDS011;46849;48.154;17.042;2022-09-30T17:06:11;4.88;;;2.90;;
60975;SDS011;46849;48.154;17.042;2022-09-30T17:08:58;7.15;;;5.18;;
60975;SDS011;46849;48.154;17.042;2022-09-30T17:11:45;3.25;;;2.55;;
60975;SDS011;46849;48.154;17.042;2022-09-30T17:14:30;4.18;;;2.92;;
60975;SDS011;46849;48.154;17.042;2022-09-30T17:17:15;2.85;;;2.42;;
60975;SDS011;46849;48.154;17.042;2022-09-30T17:19:59;3.38;;;2.42;;
60975;SDS011;46849;48.154;17.042;2022-09-30T17:22:44;4.68;;;3.53;;
60975;SDS011;46849;48.154;17.042;2022-09-30T17:25:29;4.35;;;3.30;;
60975;SDS011;46849;48.154;17.042;2022-09-30T17:28:14;4.53;;;2.70;;
60975;SDS011;46849;48.154;17.042;2022-09-30T17:30:59;3.90;;;2.58;;
60975;SDS011;46849;48.154;17.042;2022-09-30T17:33:44;10.18;;;5.68;;
60975;SDS011;46849;48.154;17.042;2022-09-30T17:36:29;6.05;;;3.95;;
60975;SDS011;46849;48.154;17.042;2022-09-30T17:39:13;5.93;;;4.10;;
60975;SDS011;46849;48.154;17.042;2022-09-30T17:42:00;3.95;;;2.42;;
60975;SDS011;46849;48.154;17.042;2022-09-30T17:45:03;7.80;;;5.88;;
60975;SDS011;46849;48.154;17.042;2022-09-30T17:47:48;8.02;;;4.90;;
60975;SDS011;46849;48.154;17.042;2022-09-30T17:50:33;4.68;;;3.75;;
60975;SDS011;46849;48.154;17.042;2022-09-30T17:53:19;5.32;;;3.53;;
60975;SDS011;46849;48.154;17.042;2022-09-30T17:56:04;13.98;;;7.75;;
60975;SDS011;46849;48.154;17.042;2022-09-30T17:58:56;7.95;;;3.92;;
60975;SDS011;46849;48.154;17.042;2022-09-30T18:01:42;5.72;;;4.43;;
60975;SDS011;46849;48.154;17.042;2022-09-30T18:04:26;5.13;;;3.83;;
60975;SDS011;46849;48.154;17.042;2022-09-30T18:07:13;5.22;;;3.67;;
60975;SDS011;46849;48.154;17.042;2022-09-30T18:09:58;4.50;;;3.63;;
60975;SDS011;46849;48.154;17.042;2022-09-30T18:12:42;4.57;;;3.80;;
60975;SDS011;46849;48.154;17.042;2022-09-30T18:15:27;5.90;;;4.00;;
60975;SDS011;46849;48.154;17.042;2022-09-30T18:18:12;5.78;;;4.25;;
60975;SDS011;46849;48.154;17.042;2022-09-30T18:20:57;5.88;;;4.05;;
60975;SDS011;46849;48.154;17.042;2022-09-30T18:23:41;5.93;;;3.40;;
60975;SDS011;46849;48.154;17.042;2022-09-30T18:26:28;6.28;;;3.67;;
60975;SDS011;46849;48.154;17.042;2022-09-30T18:29:14;5.68;;;3.97;;
60975;SDS011;46849;48.154;17.042;2022-09-30T18:31:59;6.88;;;3.95;;
60975;SDS011;46849;48.154;17.042;2022-09-30T18:34:44;4.82;;;3.67;;
60975;SDS011;46849;48.154;17.042;2022-09-30T18:37:29;5.05;;;4.05;;
60975;SDS011;46849;48.154;17.042;2022-09-30T18:40:17;4.50;;;3.72;;
60975;SDS011;46849;48.154;17.042;2022-09-30T18:43:03;4.70;;;3.28;;
60975;SDS011;46849;48.154;17.042;2022-09-30T18:45:51;9.07;;;4.88;;
60975;SDS011;46849;48.154;17.042;2022-09-30T18:48:38;7.72;;;4.75;;
60975;SDS011;46849;48.154;17.042;2022-09-30T18:51:23;6.22;;;4.25;;
60975;SDS011;46849;48.154;17.042;2022-09-30T18:54:08;6.10;;;5.30;;
60975;SDS011;46849;48.154;17.042;2022-09-30T18:56:54;7.28;;;5.25;;
60975;SDS011;46849;48.154;17.042;2022-09-30T18:59:39;6.45;;;4.35;;
60975;SDS011;46849;48.154;17.042;2022-09-30T19:02:27;6.50;;;4.20;;
60975;SDS011;46849;48.154;17.042;2022-09-30T19:05:13;6.47;;;4.38;;
60975;SDS011;46849;48.154;17.042;2022-09-30T19:08:00;5.75;;;4.60;;
60975;SDS011;46849;48.154;17.042;2022-09-30T19:10:45;7.03;;;4.93;;
60975;SDS011;46849;48.154;17.042;2022-09-30T19:13:30;7.22;;;5.35;;
60975;SDS011;46849;48.154;17.042;2022-09-30T19:16:15;5.82;;;4.47;;
60975;SDS011;46849;48.154;17.042;2022-09-30T19:19:02;6.93;;;4.40;;
60975;SDS011;46849;48.154;17.042;2022-09-30T19:21:48;5.78;;;4.70;;
60975;SDS011;46849;48.154;17.042;2022-09-30T19:24:33;4.55;;;3.65;;
60975;SDS011;46849;48.154;17.042;2022-09-30T19:27:20;7.55;;;4.72;;
60975;SDS011;46849;48.154;17.042;2022-09-30T19:30:09;6.88;;;5.30;;
60975;SDS011;46849;48.154;17.042;2022-09-30T19:32:57;7.05;;;5.40;;
60975;SDS011;46849;48.154;17.042;2022-09-30T19:35:42;9.30;;;6.10;;
60975;SDS011;46849;48.154;17.042;2022-09-30T19:38:31;5.75;;;4.15;;
60975;SDS011;46849;48.154;17.042;2022-09-30T19:41:17;7.68;;;5.03;;
60975;SDS011;46849;48.154;17.042;2022-09-30T19:44:01;6.05;;;4.55;;
60975;SDS011;46849;48.154;17.042;2022-09-30T19:46:49;9.00;;;6.28;;
60975;SDS011;46849;48.154;17.042;2022-09-30T19:49:35;10.15;;;5.15;;
60975;SDS011;46849;48.154;17.042;2022-09-30T19:52:19;9.52;;;6.45;;